Time;durP1;ratioP1;P1;durP2;ratioP2;P2;SDS_P1;SDS_P2;PMS_P1;PMS_P2;Temp;Humidity;BMP_temperature;BMP_pressure;BME280_temperature;BME280_humidity;BME280_pressure;Samples;Min_cycle;Max_cycle;Signal;HPM_P1;HPM_P2
2023/01/23 00:00:09;;;;;;;4.03;1.10;;;19.60;53.30;;;;;;5071819;28;20040;-63
2023/01/23 00:02:35;;;;;;;2.97;1.20;;;19.60;53.30;;;;;;5072509;28;20040;-63
2023/01/23 00:05:01;;;;;;;2.78;1.35;;;19.60;53.40;;;;;;5072939;28;20052;-63
2023/01/23 00:07:26;;;;;;;2.47;0.98;;;19.60;53.40;;;;;;5071400;28;20431;-63
2023/01/23 00:09:55;;;;;;;2.15;0.80;;;19.60;53.40;;;;;;5072572;28;20480;-63
2023/01/23 00:12:20;;;;;;;1.83;0.95;;;19.60;53.50;;;;;;5072333;28;20048;-63
2023/01/23 00:14:46;;;;;;;2.30;1.20;;;19.60;53.50;;;;;;5070062;28;20060;-63
2023/01/23 00:17:11;;;;;;;2.22;1.23;;;19.50;53.40;;;;;;5072308;28;20044;-63
2023/01/23 00:19:37;;;;;;;3.22;1.30;;;19.50;53.40;;;;;;5072121;28;20048;-63
2023/01/23 00:22:05;;;;;;;1.75;0.77;;;19.50;53.40;;;;;;5071830;28;20535;-63
2023/01/23 00:24:31;;;;;;;1.98;0.90;;;19.50;53.50;;;;;;5072372;28;20064;-63
2023/01/23 00:26:56;;;;;;;2.35;1.08;;;19.50;53.50;;;;;;5072580;28;20482;-62
2023/01/23 00:29:22;;;;;;;1.42;0.80;;;19.50;53.50;;;;;;5071273;28;20037;-63
2023/01/23 00:31:47;;;;;;;2.20;0.90;;;19.50;53.50;;;;;;5072283;28;20118;-63
2023/01/23 00:34:13;;;;;;;3.63;1.00;;;19.40;53.60;;;;;;5072269;28;20079;-63
2023/01/23 00:36:41;;;;;;;1.80;0.93;;;19.40;53.50;;;;;;5071738;28;20045;-63
2023/01/23 00:39:16;;;;;;;2.53;1.00;;;19.40;53.50;;;;;;5072594;28;20036;-63
2023/01/23 00:41:41;;;;;;;1.98;1.00;;;19.40;53.50;;;;;;5072118;28;20128;-63
2023/01/23 00:44:07;;;;;;;3.38;0.90;;;19.40;53.60;;;;;;5071304;28;20120;-63
2023/01/23 00:46:33;;;;;;;1.63;0.88;;;19.40;53.60;;;;;;5071291;28;20377;-63
2023/01/23 00:48:59;;;;;;;3.10;0.88;;;19.30;53.50;;;;;;5071316;28;20059;-63
2023/01/23 00:51:24;;;;;;;2.13;0.88;;;19.30;53.50;;;;;;5073420;28;20415;-63
2023/01/23 00:53:50;;;;;;;2.03;0.95;;;19.40;53.60;;;;;;5076352;28;20047;-63
2023/01/23 00:56:16;;;;;;;2.30;1.00;;;19.30;53.60;;;;;;5075085;28;20044;-62
2023/01/23 00:58:41;;;;;;;2.10;0.82;;;19.30;53.60;;;;;;5076180;28;20033;-62
2023/01/23 01:01:07;;;;;;;1.98;0.90;;;19.30;53.60;;;;;;5075870;28;20133;-63
2023/01/23 01:03:33;;;;;;;1.83;0.90;;;19.30;53.50;;;;;;5075023;28;20033;-63
2023/01/23 01:05:59;;;;;;;1.95;0.90;;;19.30;53.60;;;;;;5076021;28;20454;-63
2023/01/23 01:08:24;;;;;;;1.95;0.90;;;19.40;53.60;;;;;;5075755;28;20048;-63
2023/01/23 01:10:50;;;;;;;2.90;1.10;;;19.30;53.50;;;;;;5075222;28;20045;-63
2023/01/23 01:13:20;;;;;;;2.58;1.10;;;19.30;53.50;;;;;;5075234;28;20051;-62
2023/01/23 01:15:47;;;;;;;2.63;0.90;;;19.30;53.60;;;;;;5075614;28;20049;-62
2023/01/23 01:18:12;;;;;;;1.73;0.80;;;19.30;53.60;;;;;;5074785;28;20086;-63
2023/01/23 01:20:40;;;;;;;1.92;0.98;;;19.30;53.50;;;;;;5075894;28;20048;-63
2023/01/23 01:23:06;;;;;;;2.58;1.10;;;19.30;53.50;;;;;;5075886;28;20055;-62
2023/01/23 01:25:31;;;;;;;2.17;1.00;;;19.30;53.60;;;;;;5074644;28;20040;-62
2023/01/23 01:27:57;;;;;;;3.28;1.10;;;19.30;53.60;;;;;;5075421;28;20041;-62
2023/01/23 01:30:25;;;;;;;2.38;0.80;;;19.30;53.60;;;;;;5075245;28;20110;-63
2023/01/23 01:32:51;;;;;;;2.30;0.77;;;19.30;53.60;;;;;;5074538;28;20131;-63
2023/01/23 01:35:17;;;;;;;2.17;0.90;;;19.30;53.60;;;;;;5075223;28;20076;-63
2023/01/23 01:37:43;;;;;;;2.40;1.00;;;19.30;53.50;;;;;;5075597;28;20048;-63
2023/01/23 01:40:12;;;;;;;2.33;0.90;;;19.30;53.60;;;;;;5074533;28;20048;-63
2023/01/23 01:42:46;;;;;;;2.15;0.82;;;19.30;53.60;;;;;;5075044;28;20044;-63
2023/01/23 01:45:49;;;;;;;2.95;0.75;;;19.30;53.60;;;;;;5074176;28;20044;-63
2023/01/23 01:48:14;;;;;;;2.33;1.02;;;19.30;53.50;;;;;;5074767;28;20419;-63
2023/01/23 01:50:40;;;;;;;2.10;1.00;;;19.30;53.50;;;;;;5073691;28;20047;-63
2023/01/23 01:53:06;;;;;;;1.85;0.93;;;19.30;53.60;;;;;;5074511;28;20090;-63
2023/01/23 01:55:31;;;;;;;2.30;0.88;;;19.30;53.50;;;;;;5074791;28;20109;-63
2023/01/23 01:57:57;;;;;;;1.80;0.90;;;19.30;53.50;;;;;;5075130;28;20072;-62
2023/01/23 02:00:25;;;;;;;2.22;0.80;;;19.30;53.50;;;;;;5073974;28;20488;-63
2023/01/23 02:02:57;;;;;;;2.22;0.88;;;19.30;53.50;;;;;;5073611;28;20480;-63
2023/01/23 02:05:31;;;;;;;1.70;0.95;;;19.30;53.50;;;;;;5073261;28;20040;-63
2023/01/23 02:08:09;;;;;;;1.55;0.82;;;19.30;53.50;;;;;;5072909;28;20036;-63
2023/01/23 02:10:36;;;;;;;2.25;0.80;;;19.30;53.50;;;;;;5075138;28;20111;-63
2023/01/23 02:13:35;;;;;;;2.50;0.82;;;19.30;53.50;;;;;;5074967;28;20068;-63
2023/01/23 02:16:06;;;;;;;1.75;0.80;;;19.30;53.40;;;;;;5074415;28;20144;-62
2023/01/23 02:18:32;;;;;;;1.60;0.90;;;19.30;53.40;;;;;;5073155;28;20123;-63
2023/01/23 02:21:00;;;;;;;2.47;0.75;;;19.30;53.40;;;;;;5073969;28;20040;-63
2023/01/23 02:23:33;;;;;;;2.20;0.85;;;19.30;53.40;;;;;;5073268;28;20044;-63
2023/01/23 02:26:00;;;;;;;2.45;1.00;;;19.30;53.40;;;;;;5073310;28;20044;-63
2023/01/23 02:28:39;;;;;;;2.30;0.80;;;19.30;53.40;;;;;;5072180;28;20480;-63
2023/01/23 02:31:05;;;;;;;2.22;0.90;;;19.30;53.40;;;;;;5074552;28;20044;-63
2023/01/23 02:33:33;;;;;;;2.42;1.00;;;19.30;53.50;;;;;;5074059;28;20094;-63
2023/01/23 02:35:59;;;;;;;2.08;0.77;;;19.30;53.40;;;;;;5073364;28;20040;-63
2023/01/23 02:38:26;;;;;;;1.50;0.80;;;19.30;53.40;;;;;;5059268;28;20094;-63
2023/01/23 02:40:52;;;;;;;2.35;1.00;;;19.30;53.40;;;;;;5057314;28;20098;-63
2023/01/23 02:43:20;;;;;;;2.35;0.90;;;19.30;53.40;;;;;;5051541;28;20053;-63
2023/01/23 02:45:45;;;;;;;1.77;0.90;;;19.30;53.40;;;;;;5052663;28;20115;-63
2023/01/23 02:48:11;;;;;;;1.80;0.77;;;19.30;53.40;;;;;;5053758;28;20465;-63
2023/01/23 02:50:37;;;;;;;2.45;0.80;;;19.30;53.40;;;;;;5053179;28;20224;-63
2023/01/23 02:53:02;;;;;;;1.42;0.80;;;19.30;53.40;;;;;;5053895;28;20055;-63
2023/01/23 02:55:36;;;;;;;1.95;0.77;;;19.30;53.40;;;;;;5053521;28;20602;-63
2023/01/23 03:00:46;;;;;;;1.73;0.70;;;19.30;53.40;;;;;;5053797;28;20045;-63
2023/01/23 03:03:12;;;;;;;2.25;0.73;;;19.30;53.40;;;;;;5052728;28;20041;-63
2023/01/23 03:05:37;;;;;;;1.63;0.82;;;19.30;53.30;;;;;;5053405;28;20044;-63
2023/01/23 03:08:03;;;;;;;2.08;0.70;;;19.30;53.40;;;;;;5053582;28;20080;-63
2023/01/23 03:10:29;;;;;;;2.65;0.90;;;19.30;53.40;;;;;;5052595;28;20083;-63
2023/01/23 03:12:57;;;;;;;2.13;0.95;;;19.30;53.30;;;;;;5053582;28;20079;-63
2023/01/23 03:15:23;;;;;;;2.50;0.90;;;19.30;53.30;;;;;;5052792;28;20092;-63
2023/01/23 03:17:48;;;;;;;3.08;0.85;;;19.20;53.30;;;;;;5052931;28;20138;-63
2023/01/23 03:20:17;;;;;;;1.40;0.55;;;19.30;53.30;;;;;;5053153;28;20045;-63
2023/01/23 03:22:43;;;;;;;2.00;0.68;;;19.20;53.30;;;;;;5053618;28;20053;-63
2023/01/23 03:25:12;;;;;;;2.03;0.70;;;19.30;53.30;;;;;;5052639;28;20395;-63
2023/01/23 03:27:37;;;;;;;3.47;1.20;;;19.20;53.30;;;;;;5054223;28;20548;-62
2023/01/23 03:30:12;;;;;;;2.72;1.02;;;19.30;53.30;;;;;;5072979;28;20048;-63
2023/01/23 03:32:38;;;;;;;1.83;0.77;;;19.30;53.30;;;;;;5072794;28;20048;-62
2023/01/23 03:35:05;;;;;;;1.92;0.90;;;19.30;53.30;;;;;;5072799;28;20374;-63
2023/01/23 03:37:30;;;;;;;2.53;0.70;;;19.30;53.30;;;;;;5072913;28;20127;-63
2023/01/23 03:42:40;;;;;;;1.98;0.80;;;19.30;53.30;;;;;;5073034;28;20076;-63
2023/01/23 03:45:06;;;;;;;2.03;0.80;;;19.30;53.70;;;;;;5072323;28;20072;-63
2023/01/23 03:47:32;;;;;;;1.23;0.70;;;19.30;53.30;;;;;;5072308;28;20407;-63
2023/01/23 03:49:57;;;;;;;1.38;0.70;;;19.30;53.20;;;;;;5072958;28;20472;-62
2023/01/23 03:52:23;;;;;;;3.67;1.10;;;19.30;53.30;;;;;;5071951;28;20044;-63
2023/01/23 03:54:48;;;;;;;1.65;0.70;;;19.30;53.30;;;;;;5072918;28;20076;-62
2023/01/23 03:57:14;;;;;;;1.30;0.65;;;19.30;53.30;;;;;;5072744;28;20135;-62
2023/01/23 03:59:40;;;;;;;3.70;0.70;;;19.30;53.20;;;;;;5072166;28;20041;-62
2023/01/23 04:02:05;;;;;;;1.92;0.73;;;19.30;53.20;;;;;;5072419;28;20044;-63
2023/01/23 04:04:31;;;;;;;1.15;0.70;;;19.30;53.20;;;;;;5072377;28;20066;-63
2023/01/23 04:06:57;;;;;;;1.88;0.70;;;19.40;53.30;;;;;;5071794;28;20139;-63
2023/01/23 04:09:26;;;;;;;1.30;0.77;;;19.40;53.20;;;;;;5072247;28;20469;-63
2023/01/23 04:11:53;;;;;;;1.63;0.60;;;19.40;53.10;;;;;;5072926;28;20044;-62
2023/01/23 04:14:20;;;;;;;2.08;0.70;;;19.40;53.10;;;;;;5071260;28;20052;-62
2023/01/23 04:16:45;;;;;;;2.92;0.80;;;19.40;53.10;;;;;;5072110;28;20435;-62
2023/01/23 04:19:11;;;;;;;1.15;0.50;;;19.40;53.10;;;;;;5071870;28;20546;-62
2023/01/23 04:21:36;;;;;;;1.38;0.70;;;19.40;53.10;;;;;;5071400;28;20044;-63
2023/01/23 04:24:02;;;;;;;1.73;0.70;;;19.40;53.10;;;;;;5072094;28;20048;-63
2023/01/23 04:26:28;;;;;;;2.78;0.70;;;19.40;53.10;;;;;;5071600;28;20119;-62
2023/01/23 04:28:53;;;;;;;1.73;0.80;;;19.50;53.20;;;;;;5071737;28;20484;-63
2023/01/23 04:31:19;;;;;;;1.67;0.73;;;19.40;53.10;;;;;;5071879;28;20381;-62
2023/01/23 04:33:44;;;;;;;1.38;0.50;;;19.50;53.20;;;;;;5072039;28;20040;-62
2023/01/23 04:36:10;;;;;;;1.73;0.60;;;19.50;53.20;;;;;;5071292;28;20504;-62
2023/01/23 04:38:35;;;;;;;1.15;0.60;;;19.50;53.20;;;;;;5072257;28;20400;-63
2023/01/23 04:41:02;;;;;;;1.45;0.70;;;19.50;53.20;;;;;;5071380;28;20040;-62
2023/01/23 04:43:27;;;;;;;1.98;0.70;;;19.50;53.20;;;;;;5072256;28;20178;-62
2023/01/23 04:45:53;;;;;;;2.20;0.80;;;19.50;53.20;;;;;;5071838;28;20527;-63
2023/01/23 04:48:19;;;;;;;1.23;0.60;;;19.50;53.20;;;;;;5071209;28;20052;-63
2023/01/23 04:50:45;;;;;;;1.30;0.80;;;19.50;53.20;;;;;;5072209;28;20534;-63
2023/01/23 04:53:11;;;;;;;1.90;0.60;;;19.50;53.10;;;;;;5071484;28;20040;-63
2023/01/23 04:55:36;;;;;;;1.50;0.60;;;19.60;53.10;;;;;;5071217;28;20040;-63
2023/01/23 04:58:02;;;;;;;1.20;0.70;;;19.60;53.20;;;;;;5072376;28;20176;-63
2023/01/23 05:00:28;;;;;;;1.63;0.70;;;19.60;53.10;;;;;;5066671;28;20045;-62
2023/01/23 05:02:54;;;;;;;2.50;0.95;;;19.60;53.20;;;;;;5043828;28;20456;-62
2023/01/23 05:05:20;;;;;;;2.30;0.80;;;19.60;53.10;;;;;;5031592;28;20083;-63
2023/01/23 05:07:46;;;;;;;1.30;0.57;;;19.60;53.10;;;;;;5031537;28;20057;-63
2023/01/23 05:10:12;;;;;;;1.70;0.60;;;19.60;53.10;;;;;;5030811;28;20046;-63
2023/01/23 05:12:37;;;;;;;2.25;0.70;;;19.60;53.00;;;;;;5032089;28;20096;-62
2023/01/23 05:15:03;;;;;;;0.80;0.50;;;19.60;53.00;;;;;;5031628;28;20054;-62
2023/01/23 05:17:29;;;;;;;2.50;0.70;;;19.60;53.00;;;;;;5030995;28;20053;-62
2023/01/23 05:19:54;;;;;;;1.35;0.63;;;19.70;53.00;;;;;;5043534;28;20060;-62
2023/01/23 05:22:21;;;;;;;1.75;0.60;;;19.70;53.00;;;;;;5051423;28;20044;-62
2023/01/23 05:24:47;;;;;;;2.05;0.85;;;19.70;53.00;;;;;;5051233;28;20041;-62
2023/01/23 05:27:12;;;;;;;1.52;0.70;;;19.70;52.90;;;;;;5051545;28;20043;-62
2023/01/23 05:29:38;;;;;;;2.03;0.57;;;19.70;52.90;;;;;;5051479;28;20471;-62
2023/01/23 05:32:04;;;;;;;1.27;0.60;;;19.70;52.90;;;;;;5051165;28;20102;-62
2023/01/23 05:34:29;;;;;;;1.83;0.70;;;19.70;52.90;;;;;;5051574;28;20041;-62
2023/01/23 05:36:55;;;;;;;1.35;0.70;;;19.70;52.90;;;;;;5052526;28;20048;-62
2023/01/23 05:39:21;;;;;;;1.10;0.60;;;19.70;52.90;;;;;;5054489;28;20037;-63
2023/01/23 05:41:46;;;;;;;1.17;0.70;;;19.70;52.90;;;;;;5055567;28;20102;-62
2023/01/23 05:44:12;;;;;;;1.27;0.60;;;19.80;52.90;;;;;;5055153;28;20037;-62
2023/01/23 05:46:37;;;;;;;2.42;0.90;;;19.70;52.90;;;;;;5054564;28;20049;-62
2023/01/23 05:49:03;;;;;;;1.45;0.50;;;19.80;52.90;;;;;;5055331;28;20127;-62
2023/01/23 05:51:32;;;;;;;2.20;0.55;;;19.80;52.90;;;;;;5054339;28;20041;-62
2023/01/23 05:53:59;;;;;;;1.45;0.60;;;19.80;52.90;;;;;;5055266;28;20500;-62
2023/01/23 05:56:24;;;;;;;2.22;0.60;;;19.80;52.90;;;;;;5054753;28;20036;-62
2023/01/23 05:58:50;;;;;;;1.00;0.50;;;19.80;52.80;;;;;;5054185;28;20435;-62
2023/01/23 06:01:16;;;;;;;2.20;0.57;;;19.80;52.80;;;;;;5054707;28;20044;-62
2023/01/23 06:03:41;;;;;;;1.20;0.70;;;19.80;52.80;;;;;;5055027;28;20527;-62
2023/01/23 06:06:07;;;;;;;1.98;0.68;;;19.80;52.80;;;;;;5054076;28;20045;-62
2023/01/23 06:08:32;;;;;;;1.55;0.60;;;19.80;52.70;;;;;;5054355;28;20041;-62
2023/01/23 06:10:58;;;;;;;1.45;0.52;;;19.80;52.70;;;;;;5054820;28;20040;-62
2023/01/23 06:13:25;;;;;;;2.33;0.73;;;19.80;52.60;;;;;;5053978;28;20041;-62
2023/01/23 06:15:51;;;;;;;2.55;0.80;;;19.80;52.60;;;;;;5054231;28;20053;-62
2023/01/23 06:18:16;;;;;;;0.77;0.45;;;19.80;52.60;;;;;;5054460;28;20098;-62
2023/01/23 06:20:42;;;;;;;1.40;0.63;;;19.80;52.60;;;;;;5054012;28;20037;-62
2023/01/23 06:23:07;;;;;;;1.80;0.60;;;19.80;52.60;;;;;;5054645;28;20052;-62
2023/01/23 06:25:33;;;;;;;1.05;0.75;;;19.90;52.60;;;;;;5054103;28;20048;-62
2023/01/23 06:27:59;;;;;;;1.10;0.43;;;19.90;52.60;;;;;;5053606;28;20060;-62
2023/01/23 06:30:24;;;;;;;1.60;0.50;;;19.90;52.60;;;;;;5053826;28;20043;-62
2023/01/23 06:32:50;;;;;;;1.20;0.60;;;19.90;52.60;;;;;;5054427;28;20091;-62
2023/01/23 06:35:15;;;;;;;1.63;0.70;;;19.90;52.50;;;;;;5062386;28;20087;-63
2023/01/23 06:37:41;;;;;;;1.30;0.60;;;19.80;52.50;;;;;;5074319;28;20040;-62
2023/01/23 06:40:11;;;;;;;1.00;0.50;;;19.90;52.50;;;;;;5074221;28;20085;-62
2023/01/23 06:42:38;;;;;;;2.05;0.60;;;19.90;52.50;;;;;;5072997;28;20040;-62
2023/01/23 06:45:03;;;;;;;1.77;0.60;;;19.90;52.50;;;;;;5074307;28;20044;-62
2023/01/23 06:47:29;;;;;;;1.65;0.60;;;19.90;52.40;;;;;;5073783;28;20040;-62
2023/01/23 06:49:55;;;;;;;0.77;0.60;;;19.90;52.40;;;;;;5072469;28;20075;-62
2023/01/23 06:52:20;;;;;;;1.25;0.50;;;19.90;52.40;;;;;;5073668;28;20066;-62
2023/01/23 06:54:46;;;;;;;0.63;0.40;;;19.90;52.40;;;;;;5073490;28;20036;-63
2023/01/23 06:57:12;;;;;;;1.15;0.70;;;19.90;52.30;;;;;;5073209;28;20465;-62
2023/01/23 06:59:37;;;;;;;1.75;0.60;;;19.90;52.30;;;;;;5074118;28;20048;-62
2023/01/23 07:02:03;;;;;;;2.22;0.60;;;19.90;52.30;;;;;;5073163;28;20045;-62
2023/01/23 07:04:28;;;;;;;1.02;0.47;;;19.90;52.30;;;;;;5073507;28;20051;-62
2023/01/23 07:06:54;;;;;;;1.55;0.70;;;20.00;52.30;;;;;;5073865;28;20127;-62
2023/01/23 07:09:19;;;;;;;1.15;0.50;;;20.00;52.30;;;;;;5072948;28;20056;-62
2023/01/23 07:11:45;;;;;;;1.55;0.73;;;19.90;52.20;;;;;;5073469;28;20037;-62
2023/01/23 07:14:10;;;;;;;5.13;1.05;;;20.00;52.30;;;;;;5061180;28;20045;-59
2023/01/23 07:16:36;;;;;;;3.00;0.60;;;20.00;52.20;;;;;;5032866;28;20508;-59
2023/01/23 07:19:04;;;;;;;0.95;0.50;;;20.00;52.20;;;;;;5033606;28;20053;-59
2023/01/23 07:21:29;;;;;;;5.20;1.13;;;20.00;52.20;;;;;;5033478;28;20063;-59
2023/01/23 07:23:55;;;;;;;0.90;0.50;;;19.90;52.20;;;;;;5032747;28;20117;-60
2023/01/23 07:26:20;;;;;;;7.05;0.68;;;20.00;52.20;;;;;;5033039;28;20052;-59
2023/01/23 07:28:46;;;;;;;2.00;0.47;;;20.00;52.20;;;;;;5033541;28;20482;-59
2023/01/23 07:31:12;;;;;;;3.28;0.60;;;20.00;52.30;;;;;;5032444;28;20462;-60
2023/01/23 07:33:37;;;;;;;2.80;0.80;;;20.00;52.40;;;;;;5033228;28;20164;-60
2023/01/23 07:36:06;;;;;;;3.63;0.80;;;19.90;52.30;;;;;;5033623;28;20049;-59
2023/01/23 07:38:32;;;;;;;3.15;0.57;;;20.00;52.40;;;;;;5032374;28;20041;-59
2023/01/23 07:40:58;;;;;;;3.22;0.60;;;20.00;52.50;;;;;;5043647;28;20064;-59
2023/01/23 07:43:24;;;;;;;5.65;0.70;;;20.00;52.50;;;;;;5051776;28;20405;-60
2023/01/23 07:45:49;;;;;;;4.03;0.60;;;20.00;52.60;;;;;;5048432;28;20064;-60
2023/01/23 07:48:15;;;;;;;3.30;0.82;;;20.00;52.80;;;;;;5050187;28;20060;-60
2023/01/23 07:50:41;;;;;;;3.80;0.73;;;20.00;53.00;;;;;;5050453;28;20044;-61
2023/01/23 07:53:06;;;;;;;2.63;1.08;;;20.00;53.00;;;;;;5049871;28;20553;-60
2023/01/23 07:55:32;;;;;;;1.38;0.63;;;20.00;53.20;;;;;;5050801;28;20473;-60
2023/01/23 07:57:58;;;;;;;5.05;0.95;;;20.00;53.30;;;;;;5049016;28;20062;-60
2023/01/23 08:00:23;;;;;;;1.95;0.60;;;20.00;53.40;;;;;;5050728;28;20061;-60
2023/01/23 08:02:49;;;;;;;4.18;0.70;;;20.00;53.50;;;;;;5050178;28;20481;-60
2023/01/23 08:05:15;;;;;;;3.80;0.70;;;20.10;53.50;;;;;;5049131;28;20170;-62
2023/01/23 08:07:40;;;;;;;1.98;0.50;;;20.10;53.60;;;;;;5050092;28;20404;-61
2023/01/23 08:10:07;;;;;;;3.28;0.70;;;20.10;53.80;;;;;;5050357;28;20033;-61
2023/01/23 08:12:32;;;;;;;2.95;0.60;;;20.10;53.80;;;;;;5047984;28;20049;-60
2023/01/23 08:14:58;;;;;;;2.55;0.70;;;20.10;53.80;;;;;;5049956;28;20053;-62
2023/01/23 08:17:23;;;;;;;1.42;0.52;;;20.10;53.80;;;;;;5048198;28;20040;-61
2023/01/23 08:19:49;;;;;;;3.30;0.60;;;20.10;53.90;;;;;;5048797;28;20072;-62
2023/01/23 08:22:15;;;;;;;1.30;0.52;;;20.10;54.00;;;;;;5050007;28;20041;-60
2023/01/23 08:24:40;;;;;;;4.13;0.82;;;20.10;54.10;;;;;;5049735;28;20433;-60
2023/01/23 08:27:06;;;;;;;3.53;0.80;;;20.10;54.10;;;;;;5049600;28;20082;-60
2023/01/23 08:29:31;;;;;;;1.10;0.60;;;20.10;54.00;;;;;;5049471;28;20029;-60
2023/01/23 08:31:57;;;;;;;2.65;0.70;;;20.10;53.90;;;;;;5049779;28;20044;-66
2023/01/23 08:34:23;;;;;;;2.33;0.70;;;20.10;53.80;;;;;;5048504;28;20485;-60
2023/01/23 08:36:49;;;;;;;2.70;0.70;;;20.10;53.80;;;;;;5047952;28;20563;-59
2023/01/23 08:39:18;;;;;;;4.07;0.70;;;20.10;53.80;;;;;;5048631;28;20041;-60
2023/01/23 08:41:44;;;;;;;7.55;1.00;;;20.10;53.90;;;;;;5049300;28;20099;-61
2023/01/23 08:44:10;;;;;;;4.38;0.82;;;20.10;53.90;;;;;;5048984;28;20033;-61
2023/01/23 08:46:35;;;;;;;3.63;0.70;;;20.10;54.00;;;;;;5050212;28;20045;-63
2023/01/23 08:49:02;;;;;;;4.07;0.90;;;20.10;54.10;;;;;;5048356;28;20056;-62
2023/01/23 08:51:28;;;;;;;3.10;0.70;;;20.10;54.10;;;;;;5049964;28;20648;-63
2023/01/23 08:53:54;;;;;;;2.50;0.75;;;20.10;54.20;;;;;;5048851;28;20040;-62
2023/01/23 08:56:20;;;;;;;1.80;0.70;;;20.10;54.20;;;;;;5048505;28;20071;-62
2023/01/23 08:58:46;;;;;;;2.95;0.75;;;20.10;54.20;;;;;;5049548;28;20083;-62
2023/01/23 09:01:16;;;;;;;3.55;0.85;;;20.10;54.20;;;;;;5049700;28;20033;-63
2023/01/23 09:03:42;;;;;;;3.40;0.73;;;20.10;54.10;;;;;;5049544;28;20049;-63
2023/01/23 09:06:09;;;;;;;3.60;0.60;;;20.10;54.20;;;;;;5049489;28;20048;-63
2023/01/23 09:08:35;;;;;;;2.15;0.68;;;20.10;54.10;;;;;;5030747;28;20068;-63
2023/01/23 09:11:04;;;;;;;3.60;0.73;;;20.10;54.10;;;;;;5047755;28;20401;-63
2023/01/23 09:13:30;;;;;;;1.75;0.60;;;20.10;54.10;;;;;;5052556;28;20037;-63
2023/01/23 09:15:56;;;;;;;1.00;0.50;;;20.10;54.10;;;;;;5051789;28;20052;-63
2023/01/23 09:18:21;;;;;;;3.20;0.47;;;20.10;54.10;;;;;;5052846;28;20093;-63
2023/01/23 09:20:48;;;;;;;2.25;0.77;;;20.10;54.20;;;;;;5049964;28;20124;-64
2023/01/23 09:23:13;;;;;;;3.17;0.70;;;20.10;54.20;;;;;;5046022;28;20063;-63
2023/01/23 09:25:39;;;;;;;1.23;0.60;;;20.10;54.20;;;;;;5053420;28;20041;-62
2023/01/23 09:28:05;;;;;;;2.25;0.70;;;20.10;54.20;;;;;;5052710;28;20083;-62
2023/01/23 09:30:30;;;;;;;0.80;0.50;;;20.10;54.20;;;;;;5052713;28;20094;-61
2023/01/23 09:32:56;;;;;;;3.53;1.00;;;20.10;54.20;;;;;;5052426;28;20049;-63
2023/01/23 09:35:22;;;;;;;1.75;0.50;;;20.10;54.20;;;;;;5053345;28;20163;-63
2023/01/23 09:38:00;;;;;;;1.80;0.80;;;20.10;54.20;;;;;;5052753;28;20123;-62
2023/01/23 09:40:28;;;;;;;;;;;20.10;54.20;;;;;;5052739;28;20036;-62
2023/01/23 09:42:54;;;;;;;2.35;0.60;;;20.10;54.00;;;;;;5052409;28;20015;-62
2023/01/23 09:45:22;;;;;;;1.60;0.50;;;20.00;54.10;;;;;;5051306;28;20167;-62
2023/01/23 09:47:58;;;;;;;9.57;1.40;;;20.00;54.30;;;;;;5050166;28;20549;-62
2023/01/23 09:50:28;;;;;;;2.05;0.70;;;20.00;54.30;;;;;;5051631;28;20043;-61
2023/01/23 09:53:04;;;;;;;1.75;0.60;;;20.00;54.30;;;;;;5034917;28;20041;-61
2023/01/23 09:55:44;;;;;;;4.70;0.70;;;20.00;54.10;;;;;;5051659;28;20159;-61
2023/01/23 09:58:23;;;;;;;3.45;0.95;;;20.00;54.10;;;;;;5047308;28;20037;-61
2023/01/23 10:00:49;;;;;;;1.02;0.50;;;20.00;54.00;;;;;;5034147;28;20061;-62
2023/01/23 10:03:15;;;;;;;2.78;0.70;;;20.00;54.10;;;;;;5050042;28;20045;-61
2023/01/23 10:05:59;;;;;;;5.22;0.73;;;20.00;54.10;;;;;;5051630;28;20044;-61
2023/01/23 10:08:46;;;;;;;2.28;0.68;;;20.00;54.10;;;;;;5052286;28;20480;-61
2023/01/23 10:11:21;;;;;;;2.40;0.88;;;20.00;54.00;;;;;;5051496;28;20401;-62
2023/01/23 10:14:02;;;;;;;3.03;0.98;;;20.00;54.00;;;;;;5051200;28;20486;-62
2023/01/23 10:16:46;;;;;;;2.10;0.75;;;20.00;54.00;;;;;;5052553;28;20064;-62
2023/01/23 10:19:33;;;;;;;3.60;0.73;;;20.00;53.90;;;;;;5050680;28;20041;-61
2023/01/23 10:22:02;;;;;;;2.90;0.80;;;20.00;53.80;;;;;;5048126;28;20539;-61
2023/01/23 10:24:43;;;;;;;2.63;0.70;;;20.00;53.70;;;;;;5049871;28;20291;-61
2023/01/23 10:27:18;;;;;;;2.33;0.70;;;20.00;53.60;;;;;;5049781;28;20138;-61
2023/01/23 10:29:56;;;;;;;4.88;0.77;;;20.00;53.50;;;;;;5050821;28;20061;-60
2023/01/23 10:32:26;;;;;;;3.47;0.98;;;20.00;53.50;;;;;;5049186;28;20416;-61
2023/01/23 10:35:12;;;;;;;3.45;0.80;;;20.00;53.40;;;;;;5067199;28;20450;-61
2023/01/23 10:37:48;;;;;;;4.10;0.80;;;19.90;53.10;;;;;;5050416;28;20045;-61
2023/01/23 10:40:16;;;;;;;5.15;1.20;;;19.90;52.90;;;;;;5050070;28;20057;-61
2023/01/23 10:42:41;;;;;;;2.97;1.00;;;19.90;52.80;;;;;;5051938;28;20081;-61
2023/01/23 10:45:16;;;;;;;4.45;1.00;;;19.90;52.70;;;;;;5052100;28;20338;-61
2023/01/23 10:47:46;;;;;;;7.47;1.98;;;19.90;52.50;;;;;;5050404;28;20135;-61
2023/01/23 10:50:12;;;;;;;7.10;1.40;;;19.90;52.40;;;;;;5052010;28;20041;-60
2023/01/23 10:52:42;;;;;;;3.80;1.10;;;19.90;52.50;;;;;;5049999;28;20037;-60
2023/01/23 10:55:25;;;;;;;8.65;1.20;;;19.90;52.70;;;;;;5051176;28;20060;-61
2023/01/23 10:57:55;;;;;;;7.13;1.45;;;19.90;53.00;;;;;;5050618;28;20135;-60
2023/01/23 11:00:39;;;;;;;4.55;1.20;;;19.90;53.00;;;;;;5044827;28;20459;-61
2023/01/23 11:03:20;;;;;;;4.90;1.42;;;19.90;53.10;;;;;;5046310;28;20053;-61
2023/01/23 11:06:05;;;;;;;2.85;1.10;;;19.90;53.40;;;;;;5043627;28;20046;-61
2023/01/23 11:08:34;;;;;;;8.18;1.15;;;19.90;53.40;;;;;;5050215;28;20041;-62
2023/01/23 11:11:35;;;;;;;4.90;1.60;;;20.00;53.50;;;;;;5051575;28;20167;-62
2023/01/23 11:14:06;;;;;;;6.13;1.40;;;20.00;53.80;;;;;;5047748;28;20068;-61
2023/01/23 11:16:31;;;;;;;5.95;1.13;;;20.00;53.80;;;;;;5050591;28;20477;-61
2023/01/23 11:19:14;;;;;;;2.58;0.95;;;20.00;53.70;;;;;;5050458;28;20047;-61
2023/01/23 11:21:52;;;;;;;6.80;1.27;;;20.00;53.70;;;;;;5049513;28;20044;-61
2023/01/23 11:24:20;;;;;;;4.70;1.33;;;20.00;53.80;;;;;;5048106;28;20072;-62
2023/01/23 11:26:45;;;;;;;2.00;1.00;;;20.00;53.90;;;;;;5050486;28;20060;-61
2023/01/23 11:29:24;;;;;;;5.30;1.45;;;20.00;54.00;;;;;;5048021;28;20402;-61
2023/01/23 11:31:54;;;;;;;10.20;1.20;;;20.00;53.90;;;;;;5048757;28;20051;-61
2023/01/23 11:34:22;;;;;;;5.88;1.40;;;20.00;53.90;;;;;;5050540;28;20099;-62
2023/01/23 11:37:03;;;;;;;5.85;1.10;;;20.00;53.80;;;;;;5034656;28;20399;-62
2023/01/23 11:40:10;;;;;;;5.10;1.35;;;20.00;53.80;;;;;;5051373;28;20540;-61
2023/01/23 11:42:39;;;;;;;4.78;1.38;;;20.00;53.80;;;;;;5050444;28;20048;-62
2023/01/23 11:45:25;;;;;;;4.80;0.80;;;20.00;53.70;;;;;;5033875;28;20065;-61
2023/01/23 11:48:29;;;;;;;4.18;1.23;;;20.00;53.70;;;;;;5021070;28;20061;-61
2023/01/23 11:51:09;;;;;;;4.43;1.00;;;20.00;53.70;;;;;;5048993;28;20056;-65
2023/01/23 11:53:43;;;;;;;4.40;1.20;;;19.90;53.60;;;;;;5041926;28;20507;-63
2023/01/23 11:56:15;;;;;;;3.30;1.00;;;20.00;53.80;;;;;;5049872;28;20155;-63
2023/01/23 11:59:07;;;;;;;4.78;1.02;;;19.90;53.80;;;;;;5066103;28;20041;-63
2023/01/23 12:02:11;;;;;;;5.53;1.25;;;19.90;53.80;;;;;;5037079;28;20053;-64
2023/01/23 12:04:58;;;;;;;2.95;1.10;;;19.90;54.00;;;;;;5019302;28;20567;-63
2023/01/23 12:07:24;;;;;;;4.15;1.05;;;19.90;54.10;;;;;;5019461;28;20085;-63
2023/01/23 12:09:52;;;;;;;4.40;1.23;;;19.90;54.10;;;;;;5032719;28;20199;-62
2023/01/23 12:12:49;;;;;;;6.82;1.20;;;19.90;54.20;;;;;;5049787;28;20122;-62
2023/01/23 12:15:27;;;;;;;3.92;2.00;;;19.90;54.30;;;;;;5049395;28;20045;-60
2023/01/23 12:18:05;;;;;;;6.60;1.20;;;19.90;54.20;;;;;;5049606;28;20124;-60
2023/01/23 12:21:06;;;;;;;;;;;19.90;54.30;;;;;;5030443;28;20040;-61
2023/01/23 12:24:07;;;;;;;2.80;1.20;;;19.90;54.30;;;;;;5018028;28;19968;-61
2023/01/23 12:26:32;;;;;;;4.05;1.23;;;19.90;54.30;;;;;;4980423;28;20071;-62
2023/01/23 12:28:58;;;;;;;4.15;1.30;;;19.90;54.30;;;;;;5049035;28;20133;-61
2023/01/23 12:31:29;;;;;;;3.55;0.80;;;19.90;54.40;;;;;;5049790;28;20459;-62
2023/01/23 12:34:17;;;;;;;3.38;1.30;;;19.80;54.20;;;;;;5047955;28;20045;-59
2023/01/23 12:36:42;;;;;;;3.33;1.10;;;19.90;54.40;;;;;;5034078;28;20488;-61
2023/01/23 12:39:13;;;;;;;2.75;1.05;;;19.90;54.30;;;;;;5050080;28;20485;-60
2023/01/23 12:41:50;;;;;;;4.18;1.20;;;19.90;54.30;;;;;;5048544;28;20416;-63
2023/01/23 12:44:22;;;;;;;4.03;1.23;;;19.90;54.30;;;;;;5049370;28;20563;-62
2023/01/23 12:46:47;;;;;;;3.83;1.10;;;19.90;54.30;;;;;;5046955;28;20122;-61
2023/01/23 12:49:24;;;;;;;7.22;1.55;;;19.90;54.10;;;;;;5049936;28;20092;-62
2023/01/23 12:51:54;;;;;;;3.10;1.20;;;19.90;54.10;;;;;;5050324;28;20128;-62
2023/01/23 12:54:38;;;;;;;3.00;0.95;;;19.90;54.20;;;;;;5049662;28;20520;-62
2023/01/23 12:57:04;;;;;;;3.88;1.27;;;19.90;54.10;;;;;;5050969;28;20049;-62
2023/01/23 12:59:53;;;;;;;6.07;1.40;;;19.90;54.20;;;;;;5050294;28;20079;-62
2023/01/23 13:02:40;;;;;;;4.90;1.38;;;19.90;54.20;;;;;;5061682;28;20127;-67